Time;durP1;ratioP1;P1;durP2;ratioP2;P2;SDS_P1;SDS_P2;PMS_P1;PMS_P2;Temp;Humidity;BMP_temperature;BMP_pressure;BME280_temperature;BME280_humidity;BME280_pressure;Samples;Min_cycle;Max_cycle;Signal;HPM_P1;HPM_P2
2023/06/09 00:00:23;;;;;;;14.30;8.02;;;;;;;21.96;63.09;100441.47;5054126;28;20055;-77
2023/06/09 00:03:08;;;;;;;14.73;8.43;;;;;;;21.85;63.53;100439.84;5040902;28;20084;-78
2023/06/09 00:05:53;;;;;;;11.43;8.43;;;;;;;21.80;63.71;100438.28;5053471;28;20119;-78
2023/06/09 00:08:38;;;;;;;10.23;6.38;;;;;;;21.87;63.47;100435.53;5052468;28;20052;-77
2023/06/09 00:11:23;;;;;;;11.10;7.57;;;;;;;22.07;61.74;100436.69;5052879;28;20051;-78
2023/06/09 00:14:08;;;;;;;8.73;6.93;;;;;;;22.07;61.55;100436.69;5052469;28;20052;-76
2023/06/09 00:16:52;;;;;;;15.73;7.93;;;;;;;21.98;61.99;100432.75;5042788;28;20052;-77
2023/06/09 00:19:41;;;;;;;9.13;6.90;;;;;;;21.91;62.04;100436.28;5052376;28;20052;-77
2023/06/09 00:22:27;;;;;;;10.70;7.05;;;;;;;21.86;62.19;100436.69;5052225;28;20052;-77
2023/06/09 00:25:13;;;;;;;11.52;6.57;;;;;;;21.83;62.93;100437.50;5052637;28;20056;-77
2023/06/09 00:27:57;;;;;;;10.68;6.53;;;;;;;21.86;62.21;100433.13;5052157;28;20047;-79
2023/06/09 00:30:42;;;;;;;9.95;7.03;;;;;;;21.83;62.52;100428.41;5039266;28;20412;-77
2023/06/09 00:33:26;;;;;;;7.90;6.45;;;;;;;21.81;62.86;100430.78;5052445;28;20047;-77
2023/06/09 00:36:12;;;;;;;9.88;6.82;;;;;;;21.88;62.41;100434.34;5055100;28;20120;-77
2023/06/09 00:38:58;;;;;;;9.27;7.20;;;;;;;21.88;62.73;100425.22;5039443;28;20044;-77
2023/06/09 00:41:43;;;;;;;8.23;6.28;;;;;;;21.89;62.65;100424.81;5055029;28;20415;-78
2023/06/09 00:44:28;;;;;;;19.05;7.38;;;;;;;21.94;62.30;100426.44;5051598;28;20044;-77
2023/06/09 00:47:13;;;;;;;10.32;6.20;;;;;;;22.10;62.13;100415.69;5052857;28;20506;-78
2023/06/09 00:49:58;;;;;;;9.15;6.60;;;;;;;22.07;62.60;100410.97;5056518;28;20048;-77
2023/06/09 00:52:44;;;;;;;8.88;6.18;;;;;;;21.94;62.79;100405.06;5052879;28;20052;-78
2023/06/09 00:55:29;;;;;;;11.25;6.30;;;;;;;21.76;63.12;100393.22;5059023;28;20048;-78
2023/06/09 00:58:13;;;;;;;9.43;5.72;;;;;;;21.82;63.03;100390.84;5051199;28;20048;-76
2023/06/09 01:00:59;;;;;;;8.90;5.45;;;;;;;21.93;62.26;100392.41;5052191;28;20052;-78
2023/06/09 01:03:46;;;;;;;8.32;6.50;;;;;;;21.82;62.47;100377.00;5054098;28;20067;-78
2023/06/09 01:06:56;;;;;;;9.05;5.47;;;;;;;21.79;62.67;100384.09;5043312;28;20523;-78
2023/06/09 01:10:15;;;;;;;9.02;5.10;;;;;;;21.73;62.34;100374.66;5044401;28;20661;-78
2023/06/09 01:13:33;;;;;;;6.70;5.10;;;;;;;21.68;63.12;100370.31;5044735;28;20056;-79
2023/06/09 01:16:41;;;;;;;5.50;4.28;;;;;;;21.61;63.38;100373.09;5053799;28;20044;-78
2023/06/09 01:19:36;;;;;;;6.78;4.15;;;;;;;21.72;63.81;100384.94;5051264;28;20052;-78
2023/06/09 01:22:29;;;;;;;6.85;4.65;;;;;;;21.59;62.86;100380.19;5039050;28;20060;-79
2023/06/09 01:25:34;;;;;;;6.53;3.90;;;;;;;21.52;63.50;100385.75;5052339;28;20044;-77
2023/06/09 01:28:23;;;;;;;;;;;;;;;21.54;63.07;100386.13;5054756;28;20044;-77
2023/06/09 01:31:11;;;;;;;9.07;5.05;;;;;;;21.50;64.08;100382.59;5056052;28;19912;-77
2023/06/09 01:33:56;;;;;;;11.38;5.60;;;;;;;21.52;64.55;100382.97;5043877;28;20059;-77
2023/06/09 01:36:42;;;;;;;10.55;5.38;;;;;;;21.54;64.63;100380.59;5054077;28;20059;-78
2023/06/09 01:39:27;;;;;;;8.43;4.10;;;;;;;21.60;63.97;100373.47;5052342;28;20068;-77
2023/06/09 01:42:12;;;;;;;6.63;4.57;;;;;;;21.70;62.46;100367.91;5039141;28;20115;-78
2023/06/09 01:44:57;;;;;;;8.32;4.47;;;;;;;21.62;62.91;100377.44;5043026;28;20139;-78
2023/06/09 01:47:42;;;;;;;10.45;3.83;;;;;;;21.72;62.23;100373.06;5054610;28;20043;-79
2023/06/09 01:50:41;;;;;;;7.13;4.25;;;;;;;21.71;62.31;100375.03;5061654;28;20048;-77
2023/06/09 01:53:34;;;;;;;9.85;4.40;;;;;;;21.75;61.75;100372.25;5062377;22;20557;-83
2023/06/09 01:56:25;;;;;;;5.00;3.95;;;;;;;21.86;61.82;100375.78;4991677;28;20053;-83
2023/06/09 01:59:41;;;;;;;5.85;4.05;;;;;;;21.91;61.99;100371.81;4999181;28;20050;-82
2023/06/09 02:02:30;;;;;;;5.57;3.83;;;;;;;21.88;62.35;100370.66;4997357;28;20041;-82
2023/06/09 02:05:15;;;;;;;8.90;4.22;;;;;;;21.86;61.51;100369.47;4987116;28;20046;-82
2023/06/09 02:08:01;;;;;;;5.97;3.70;;;;;;;21.83;63.18;100364.75;4986062;28;20057;-81
2023/06/09 02:10:47;;;;;;;7.70;3.60;;;;;;;21.37;64.85;100362.84;4984887;28;20054;-80
2023/06/09 02:13:31;;;;;;;6.80;4.38;;;;;;;21.13;65.42;100355.31;4999463;28;20057;-80
2023/06/09 02:16:18;;;;;;;6.70;4.95;;;;;;;21.09;65.40;100354.50;5000212;28;20409;-81
2023/06/09 02:19:03;;;;;;;6.47;4.18;;;;;;;21.32;65.69;100364.03;4999019;28;20054;-80
2023/06/09 02:21:47;;;;;;;7.22;4.55;;;;;;;21.24;65.86;100356.91;4988483;28;20057;-80
2023/06/09 02:24:33;;;;;;;7.72;3.58;;;;;;;21.33;65.75;100353.78;5000771;28;20057;-80
2023/06/09 02:27:18;;;;;;;5.07;4.10;;;;;;;21.42;64.95;100358.88;4997931;28;20045;-80
2023/06/09 02:30:03;;;;;;;5.78;4.07;;;;;;;21.19;65.30;100353.75;4988279;28;20069;-80
2023/06/09 02:32:48;;;;;;;5.15;4.03;;;;;;;21.45;66.70;100355.31;4986862;28;20049;-80
2023/06/09 02:35:33;;;;;;;5.82;3.97;;;;;;;21.41;67.21;100344.25;4992201;28;20061;-79
2023/06/09 02:38:18;;;;;;;5.97;3.88;;;;;;;21.45;67.34;100358.88;4998064;28;20524;-79
2023/06/09 02:41:02;;;;;;;4.95;3.30;;;;;;;21.40;66.31;100352.94;5001279;28;20073;-79
2023/06/09 02:43:47;;;;;;;6.70;4.10;;;;;;;21.45;65.87;100350.56;4999257;28;20524;-79
2023/06/09 02:46:33;;;;;;;9.48;4.30;;;;;;;21.40;66.23;100350.19;5003187;28;20053;-79
2023/06/09 02:49:18;;;;;;;6.72;4.55;;;;;;;21.21;66.55;100360.47;5001209;28;20049;-80
2023/06/09 02:52:03;;;;;;;5.63;3.70;;;;;;;21.13;67.04;100353.31;4999311;28;20061;-79
2023/06/09 02:54:52;;;;;;;4.88;4.18;;;;;;;21.16;66.33;100349.81;5002048;28;20041;-80
2023/06/09 02:57:38;;;;;;;6.60;4.55;;;;;;;21.13;66.14;100358.84;4998990;28;20061;-81
2023/06/09 03:00:24;;;;;;;8.20;4.47;;;;;;;21.02;67.30;100349.78;4997666;28;20045;-82
2023/06/09 03:03:11;;;;;;;15.07;4.70;;;;;;;21.22;65.56;100353.78;4998114;28;20053;-81
2023/06/09 03:05:58;;;;;;;8.27;3.22;;;;;;;21.27;64.34;100352.59;4986085;28;20049;-81
2023/06/09 03:08:44;;;;;;;6.90;4.38;;;;;;;21.17;65.21;100345.88;4984144;28;20069;-83
2023/06/09 03:11:32;;;;;;;15.38;4.75;;;;;;;21.23;63.97;100344.25;4990215;28;20045;-83
2023/06/09 03:14:17;;;;;;;8.10;3.75;;;;;;;21.19;64.50;100348.22;4999210;28;20057;-83
2023/06/09 03:17:04;;;;;;;6.43;3.92;;;;;;;21.21;64.72;100354.94;4984049;28;20417;-83
2023/06/09 03:19:51;;;;;;;6.20;4.43;;;;;;;21.13;65.45;100344.25;4990396;28;20066;-83
2023/06/09 03:22:36;;;;;;;4.95;3.45;;;;;;;21.19;65.58;100340.72;4999420;28;20058;-83
2023/06/09 03:25:24;;;;;;;4.60;3.42;;;;;;;21.13;66.68;100347.78;4984201;28;20050;-84
2023/06/09 03:28:09;;;;;;;7.05;3.75;;;;;;;21.11;65.75;100350.19;4987397;28;20046;-82
2023/06/09 03:30:56;;;;;;;5.82;3.53;;;;;;;21.05;66.17;100354.53;4986394;28;20057;-83
2023/06/09 03:33:41;;;;;;;5.18;3.97;;;;;;;21.09;66.43;100354.50;4993406;28;20050;-83
2023/06/09 03:36:26;;;;;;;5.72;3.55;;;;;;;20.96;66.00;100348.59;4995055;28;20053;-84
2023/06/09 03:39:12;;;;;;;5.38;3.53;;;;;;;21.01;64.92;100352.94;4986091;28;20049;-83
2023/06/09 03:41:57;;;;;;;6.82;3.97;;;;;;;21.05;65.29;100357.28;4997932;28;20061;-83
2023/06/09 03:44:43;;;;;;;5.05;3.90;;;;;;;21.00;65.10;100362.41;4987450;28;20053;-83
2023/06/09 03:47:28;;;;;;;9.52;4.15;;;;;;;20.93;65.39;100361.22;4998606;28;20053;-83
2023/06/09 03:50:12;;;;;;;6.35;3.72;;;;;;;21.07;65.66;100357.69;4983114;28;20038;-83
2023/06/09 03:52:57;;;;;;;4.82;3.67;;;;;;;21.15;65.24;100353.75;4997222;28;20053;-83
2023/06/09 03:55:42;;;;;;;6.65;3.20;;;;;;;21.10;65.37;100356.88;4970998;28;20540;-82
2023/06/09 03:58:28;;;;;;;7.45;3.65;;;;;;;21.11;65.12;100363.22;5002452;28;20065;-81
2023/06/09 04:01:17;;;;;;;6.60;3.88;;;;;;;21.03;65.19;100358.88;4987672;28;20149;-81
2023/06/09 04:04:01;;;;;;;4.72;3.90;;;;;;;21.25;64.14;100364.03;4985913;28;20417;-81
2023/06/09 04:06:47;;;;;;;10.77;4.07;;;;;;;21.29;64.67;100372.31;4982920;28;20049;-84
2023/06/09 04:09:34;;;;;;;6.47;3.38;;;;;;;21.25;66.26;100371.53;4989386;28;20053;-84
2023/06/09 04:12:19;;;;;;;5.53;3.95;;;;;;;21.25;65.32;100366.00;4983010;28;20046;-82
2023/06/09 04:15:06;;;;;;;5.72;3.40;;;;;;;21.21;66.11;100368.78;4994748;28;20045;-83
2023/06/09 04:17:53;;;;;;;4.15;3.70;;;;;;;21.26;64.91;100373.91;4988382;28;20045;-83
2023/06/09 04:20:42;;;;;;;7.40;3.97;;;;;;;21.28;64.47;100368.75;4983299;28;20058;-83
2023/06/09 04:23:27;;;;;;;6.75;4.57;;;;;;;21.24;64.67;100365.22;4964875;28;20065;-84
2023/06/09 04:26:14;;;;;;;9.73;5.95;;;;;;;21.32;65.08;100371.53;4982950;28;20061;-83
2023/06/09 04:29:00;;;;;;;8.93;5.35;;;;;;;21.31;65.37;100370.75;4979776;28;20042;-83
2023/06/09 04:31:45;;;;;;;13.05;5.28;;;;;;;21.36;65.04;100377.84;4969341;28;20057;-82
2023/06/09 04:34:38;;;;;;;7.90;5.07;;;;;;;21.25;65.42;100375.09;4981590;28;20093;-83
2023/06/09 04:37:25;;;;;;;7.10;4.10;;;;;;;21.14;65.64;100371.53;4980966;28;20041;-82
2023/06/09 04:40:14;;;;;;;6.13;4.50;;;;;;;21.06;66.03;100389.28;4995961;28;20045;-83
2023/06/09 04:43:01;;;;;;;9.73;4.38;;;;;;;20.95;66.68;100384.91;4984379;28;20057;-83
2023/06/09 04:45:55;;;;;;;7.43;5.43;;;;;;;20.84;67.30;100384.91;4998237;28;20045;-81
2023/06/09 04:48:41;;;;;;;10.95;5.63;;;;;;;20.66;68.57;100390.41;4982601;28;20508;-83
2023/06/09 04:51:26;;;;;;;7.35;5.57;;;;;;;20.58;69.65;100399.06;4986899;28;20054;-83
2023/06/09 04:54:16;;;;;;;12.32;7.22;;;;;;;20.69;69.47;100397.13;4985475;28;20524;-82
2023/06/09 04:57:02;;;;;;;17.15;7.05;;;;;;;20.73;69.76;100387.66;4984110;28;20625;-81
2023/06/09 04:59:48;;;;;;;7.88;5.93;;;;;;;20.90;68.99;100397.97;4988355;28;20057;-81
2023/06/09 05:02:35;;;;;;;10.30;6.40;;;;;;;21.04;68.94;100408.22;4986075;28;20049;-83
2023/06/09 05:05:21;;;;;;;12.95;9.60;;;;;;;20.98;68.61;100403.50;4983667;28;20061;-82
2023/06/09 05:08:06;;;;;;;13.25;10.38;;;;;;;20.96;68.83;100412.19;4987098;28;20516;-82
2023/06/09 05:10:52;;;;;;;14.48;10.23;;;;;;;20.99;68.11;100414.16;4985780;28;20069;-82
2023/06/09 05:13:38;;;;;;;14.27;8.07;;;;;;;21.07;68.19;100413.00;4984103;28;20399;-83
2023/06/09 05:16:28;;;;;;;14.95;10.55;;;;;;;21.15;66.98;100411.84;5003034;28;20069;-80
2023/06/09 05:19:12;;;;;;;13.65;10.70;;;;;;;21.03;67.53;100412.19;4994413;28;20046;-86
2023/06/09 05:21:57;;;;;;;18.88;8.82;;;;;;;21.20;68.04;100419.75;5001509;28;20053;-81
2023/06/09 05:24:42;;;;;;;17.55;8.70;;;;;;;21.32;67.33;100429.63;4989827;28;20050;-80
2023/06/09 05:27:28;;;;;;;20.85;11.15;;;;;;;21.29;67.13;100419.34;5007878;28;20049;-82
2023/06/09 05:30:13;;;;;;;21.50;9.60;;;;;;;21.30;67.09;100427.25;4999407;28;20049;-81
2023/06/09 05:32:58;;;;;;;20.63;15.70;;;;;;;21.71;64.86;100435.13;4998074;28;20057;-82
2023/06/09 05:35:43;;;;;;;17.25;13.70;;;;;;;21.01;68.29;100431.16;4997033;28;20050;-83
2023/06/09 05:38:30;;;;;;;19.52;12.70;;;;;;;20.93;68.40;100432.31;5009338;28;20046;-83
2023/06/09 05:41:15;;;;;;;13.60;11.20;;;;;;;20.32;70.00;100436.06;5006175;28;20057;-83
2023/06/09 05:44:00;;;;;;;17.73;12.10;;;;;;;20.27;70.88;100433.63;4986747;28;20054;-83
2023/06/09 05:46:44;;;;;;;16.20;11.52;;;;;;;20.71;69.04;100427.94;4992816;28;20054;-81
2023/06/09 05:49:30;;;;;;;17.73;12.00;;;;;;;20.94;67.78;100436.66;5015153;28;20049;-82
2023/06/09 05:52:15;;;;;;;16.67;10.93;;;;;;;20.60;68.02;100438.94;5008968;28;20046;-81
2023/06/09 05:55:01;;;;;;;17.02;10.57;;;;;;;20.60;66.99;100438.16;4996235;28;20045;-81
2023/06/09 05:57:46;;;;;;;22.15;11.23;;;;;;;20.61;67.71;100442.50;5000403;28;20049;-81
2023/06/09 06:00:31;;;;;;;19.42;9.98;;;;;;;20.78;66.25;100439.78;5012251;28;20054;-81
2023/06/09 06:03:16;;;;;;;13.95;10.00;;;;;;;20.49;66.65;100441.66;5007445;28;20050;-82
2023/06/09 06:06:00;;;;;;;18.67;9.85;;;;;;;20.95;65.73;100443.78;4997350;28;20520;-81
2023/06/09 06:08:45;;;;;;;18.65;11.73;;;;;;;20.87;66.66;100445.75;5004087;28;20413;-83
2023/06/09 06:11:31;;;;;;;14.77;9.70;;;;;;;21.12;65.58;100458.81;4991738;28;20119;-82
2023/06/09 06:14:16;;;;;;;16.33;11.50;;;;;;;20.68;67.88;100461.84;4990346;28;20061;-83
2023/06/09 06:17:00;;;;;;;19.25;10.52;;;;;;;21.83;63.93;100459.66;5006375;28;20054;-82
2023/06/09 06:19:44;;;;;;;12.35;9.40;;;;;;;22.58;61.45;100449.97;4990356;28;20065;-82
2023/06/09 06:22:29;;;;;;;14.50;10.18;;;;;;;22.74;61.33;100466.16;4970295;28;20057;-82
2023/06/09 06:25:14;;;;;;;14.00;8.98;;;;;;;23.15;59.85;100454.44;4987109;28;20057;-82
2023/06/09 06:27:59;;;;;;;12.05;7.70;;;;;;;23.51;58.87;100449.44;4982709;28;20054;-81
2023/06/09 06:30:44;;;;;;;13.48;10.43;;;;;;;22.03;61.99;100458.06;4968148;28;20050;-82
2023/06/09 06:33:30;;;;;;;13.80;9.68;;;;;;;21.88;64.68;100462.03;4966708;28;20042;-83
2023/06/09 06:36:21;;;;;;;15.02;10.10;;;;;;;22.13;63.29;100459.22;4980017;28;20054;-83
2023/06/09 06:39:06;;;;;;;11.60;9.30;;;;;;;22.66;61.07;100461.78;4966078;28;20046;-83
2023/06/09 06:41:50;;;;;;;14.50;9.68;;;;;;;22.74;61.38;100463.38;4969222;28;20053;-83
2023/06/09 06:44:35;;;;;;;13.75;9.50;;;;;;;22.90;60.89;100468.44;4967893;28;20414;-83
2023/06/09 06:47:20;;;;;;;11.70;9.48;;;;;;;22.37;61.88;100463.09;4969707;28;20053;-82
2023/06/09 06:50:06;;;;;;;15.25;10.50;;;;;;;21.93;63.71;100469.94;4997039;28;20066;-82
2023/06/09 06:52:51;;;;;;;13.95;9.00;;;;;;;23.31;58.92;100468.59;4984673;28;20050;-83
2023/06/09 06:55:36;;;;;;;12.18;8.48;;;;;;;23.05;59.45;100472.72;4983917;28;20046;-83
2023/06/09 06:58:21;;;;;;;11.73;7.25;;;;;;;23.05;59.66;100477.47;4978103;28;20062;-83
2023/06/09 07:01:06;;;;;;;8.75;6.22;;;;;;;23.21;57.58;100480.56;4998178;28;20433;-83
2023/06/09 07:03:52;;;;;;;8.82;6.68;;;;;;;22.43;59.07;100475.38;4990219;28;20533;-82
2023/06/09 07:06:37;;;;;;;13.88;7.40;;;;;;;22.14;60.24;100486.53;4995515;28;20049;-84
2023/06/09 07:09:24;;;;;;;12.38;6.55;;;;;;;22.73;58.42;100483.97;4996194;28;20050;-83
2023/06/09 07:12:09;;;;;;;10.02;6.57;;;;;;;22.21;59.65;100485.72;5003897;28;20055;-83
2023/06/09 07:14:56;;;;;;;14.88;8.55;;;;;;;22.11;59.64;100487.31;5012349;28;20049;-81
2023/06/09 07:17:40;;;;;;;15.48;6.32;;;;;;;22.07;59.55;100496.81;4994864;28;20057;-81
2023/06/09 07:20:25;;;;;;;;;;;;;;;22.16;59.53;100503.53;5008045;28;20053;-83
2023/06/09 07:23:09;;;;;;;12.13;6.10;;;;;;;22.63;58.70;100501.41;5009503;28;19917;-83
2023/06/09 07:25:56;;;;;;;11.82;6.68;;;;;;;22.98;57.29;100501.28;5008066;28;20053;-81
2023/06/09 07:28:41;;;;;;;13.23;5.78;;;;;;;23.16;57.12;100508.72;5003613;28;20057;-83
2023/06/09 07:31:26;;;;;;;10.20;5.30;;;;;;;23.31;56.52;100513.00;5007478;28;20061;-85
2023/06/09 07:34:11;;;;;;;6.95;5.10;;;;;;;23.15;57.02;100519.03;5009170;28;20536;-83
2023/06/09 07:36:56;;;;;;;13.35;4.60;;;;;;;23.44;56.84;100523.19;5006880;28;20069;-82
2023/06/09 07:39:41;;;;;;;8.40;6.20;;;;;;;23.54;56.18;100520.78;5006745;28;20062;-81
2023/06/09 07:42:26;;;;;;;10.10;6.32;;;;;;;23.35;56.88;100516.53;5006676;28;20304;-86
2023/06/09 07:45:11;;;;;;;;;;;;;;;23.67;55.28;100511.53;4990265;28;20046;-82
2023/06/09 07:47:56;;;;;;;10.55;4.75;;;;;;;23.66;55.85;100509.19;4997663;28;19914;-83
2023/06/09 07:50:41;;;;;;;9.48;7.15;;;;;;;23.19;56.30;100516.22;5000506;28;20053;-84
2023/06/09 07:53:26;;;;;;;11.73;6.57;;;;;;;24.41;53.02;100507.28;5054899;23;20057;-79
2023/06/09 07:56:11;;;;;;;11.15;5.88;;;;;;;24.91;52.74;100509.50;4981211;28;20529;-79
2023/06/09 07:58:58;;;;;;;13.27;7.53;;;;;;;24.07;53.85;100506.44;4983424;28;20057;-80
2023/06/09 08:01:43;;;;;;;18.00;7.75;;;;;;;25.10;50.74;100506.03;4981951;28;20058;-80
2023/06/09 08:04:29;;;;;;;8.80;5.93;;;;;;;25.69;49.25;100517.50;4990626;28;20062;-79
2023/06/09 08:07:15;;;;;;;9.50;5.20;;;;;;;25.43;50.55;100516.31;4978910;28;20049;-79
2023/06/09 08:10:00;;;;;;;10.90;6.07;;;;;;;25.49;50.65;100513.84;4980003;28;20049;-80
2023/06/09 08:12:45;;;;;;;15.82;7.32;;;;;;;25.51;49.72;100516.97;4987677;28;20569;-79
2023/06/09 08:15:30;;;;;;;;;;;;;;;25.86;49.66;100515.63;4978635;28;20057;-79
2023/06/09 08:18:15;;;;;;;16.00;7.10;;;;;;;25.53;50.32;100509.78;4987651;28;19914;-78
2023/06/09 08:21:00;;;;;;;10.02;6.82;;;;;;;25.83;49.88;100508.13;4973468;28;20051;-78
2023/06/09 08:23:45;;;;;;;7.63;5.00;;;;;;;26.79;48.33;100513.47;4985188;28;20107;-80
2023/06/09 08:26:30;;;;;;;12.00;4.22;;;;;;;27.47;45.81;100514.78;4978339;28;20409;-79
2023/06/09 08:29:16;;;;;;;7.93;4.93;;;;;;;26.96;46.55;100514.34;4974702;28;20046;-79
2023/06/09 08:32:01;;;;;;;13.60;7.95;;;;;;;27.59;45.45;100514.91;4967505;28;20061;-79
2023/06/09 08:34:45;;;;;;;9.57;7.45;;;;;;;25.87;49.26;100508.84;4973598;28;20049;-78
2023/06/09 08:37:32;;;;;;;10.30;7.28;;;;;;;25.96;49.38;100509.06;4975102;28;20421;-80
2023/06/09 08:40:17;;;;;;;11.25;7.60;;;;;;;26.51;48.60;100511.28;4988100;28;20049;-79
2023/06/09 08:43:05;;;;;;;12.45;8.73;;;;;;;24.98;52.39;100501.06;4982877;28;20046;-80
2023/06/09 08:45:52;;;;;;;14.18;8.57;;;;;;;24.63;52.90;100503.06;4975145;28;20046;-79
2023/06/09 08:48:42;;;;;;;17.45;8.73;;;;;;;25.05;52.64;100504.53;4975925;28;20418;-78
2023/06/09 08:51:27;;;;;;;13.45;8.50;;;;;;;25.14;52.26;100504.03;4973720;28;20050;-79
2023/06/09 08:54:15;;;;;;;12.60;8.25;;;;;;;26.11;49.63;100510.41;4973642;28;20053;-78
2023/06/09 08:57:01;;;;;;;6.40;4.30;;;;;;;26.49;48.34;100501.75;4958133;28;20050;-78
2023/06/09 08:59:50;;;;;;;9.82;7.47;;;;;;;26.35;49.28;100514.78;4979063;28;20061;-79
2023/06/09 09:02:35;;;;;;;13.57;9.10;;;;;;;25.64;51.28;100520.78;4973263;28;20046;-78
2023/06/09 09:05:20;;;;;;;12.60;8.30;;;;;;;25.86;50.38;100507.25;4975817;28;20050;-76
2023/06/09 09:08:05;;;;;;;10.40;7.60;;;;;;;27.29;46.83;100514.41;4970484;28;20049;-78
2023/06/09 09:10:50;;;;;;;11.20;6.57;;;;;;;26.99;47.04;100509.91;4994202;28;20409;-77
2023/06/09 09:13:35;;;;;;;12.20;8.40;;;;;;;26.81;48.30;100513.06;4973949;28;20073;-80
2023/06/09 09:16:20;;;;;;;14.82;8.68;;;;;;;27.45;46.54;100508.84;4979277;28;20062;-79
2023/06/09 09:19:05;;;;;;;12.57;9.27;;;;;;;26.70;48.16;100507.69;4985996;28;20509;-81
2023/06/09 09:21:50;;;;;;;65.20;12.47;;;;;;;26.30;49.56;100508.91;4986777;28;20070;-82
2023/06/09 09:24:35;;;;;;;23.80;8.88;;;;;;;26.20;49.65;100504.28;4971746;28;20047;-80
2023/06/09 09:27:22;;;;;;;13.88;8.68;;;;;;;25.48;51.73;100496.34;4973511;28;20050;-79
2023/06/09 09:30:08;;;;;;;15.07;8.52;;;;;;;25.37;53.10;100504.06;4979059;28;20430;-82
2023/06/09 09:32:53;;;;;;;13.10;9.32;;;;;;;25.22;53.67;100497.13;4972893;28;20057;-82
2023/06/09 09:35:47;;;;;;;17.02;9.60;;;;;;;25.30;54.21;100490.22;4972601;28;20089;-81
2023/06/09 09:38:32;;;;;;;16.52;9.85;;;;;;;25.67;51.87;100474.56;4992872;28;20053;-81
2023/06/09 09:41:17;;;;;;;19.30;8.95;;;;;;;25.69;51.75;100472.16;4992367;28;20042;-81
2023/06/09 09:44:01;;;;;;;12.60;7.80;;;;;;;25.42;53.02;100472.16;4972763;28;20054;-80
2023/06/09 09:46:46;;;;;;;16.45;9.38;;;;;;;25.27;52.96;100468.81;4978602;28;20050;-81
2023/06/09 09:49:31;;;;;;;13.43;7.50;;;;;;;25.02;53.79;100460.06;4978900;28;20058;-81
2023/06/09 09:52:22;;;;;;;;;;;;;;;25.31;52.99;100469.53;4989228;28;20069;-79
2023/06/09 09:55:08;;;;;;;17.10;10.30;;;;;;;25.97;50.89;100460.50;4989611;28;19914;-81
2023/06/09 09:58:07;;;;;;;13.90;10.10;;;;;;;28.07;45.11;100452.56;4963795;28;20042;-81
2023/06/09 10:00:57;;;;;;;14.88;8.98;;;;;;;28.68;43.78;100462.06;4978388;28;20492;-80
2023/06/09 10:03:44;;;;;;;15.95;9.38;;;;;;;29.80;40.96;100461.72;4955066;28;20112;-80
2023/06/09 10:06:32;;;;;;;20.00;10.38;;;;;;;30.16;38.97;100450.84;4976412;28;20058;-82
2023/06/09 10:09:17;;;;;;;16.60;10.23;;;;;;;30.24;38.92;100451.34;4963141;28;20043;-81
2023/06/09 10:12:03;;;;;;;11.15;9.07;;;;;;;30.30;38.93;100452.34;4956504;28;20059;-81
2023/06/09 10:14:50;;;;;;;14.52;9.65;;;;;;;32.82;34.15;100451.84;4994210;28;20414;-82
2023/06/09 10:17:36;;;;;;;17.10;9.93;;;;;;;33.05;33.51;100451.16;4969816;28;20070;-82
2023/06/09 10:20:21;;;;;;;7.72;5.43;;;;;;;36.62;27.90;100452.31;4974222;28;20046;-83
2023/06/09 10:23:07;;;;;;;11.60;5.75;;;;;;;37.31;27.44;100457.97;4997807;28;20052;-82
2023/06/09 10:25:52;;;;;;;11.13;6.45;;;;;;;36.81;27.31;100456.31;4983975;28;20050;-82
2023/06/09 10:28:37;;;;;;;12.48;8.15;;;;;;;31.59;36.00;100446.91;4977022;28;20054;-83
2023/06/09 10:31:24;;;;;;;9.85;7.88;;;;;;;29.96;39.72;100441.94;4978480;28;20066;-82
2023/06/09 10:34:12;;;;;;;10.27;7.80;;;;;;;32.62;34.53;100448.75;4997537;28;20061;-81
2023/06/09 10:36:57;;;;;;;14.43;9.00;;;;;;;32.85;34.08;100439.66;5001087;28;20049;-81
2023/06/09 10:39:57;;;;;;;14.63;7.68;;;;;;;31.15;36.06;100440.66;4962257;28;20058;-82
2023/06/09 10:43:14;;;;;;;10.30;6.70;;;;;;;28.82;41.65;100442.84;4994203;28;20066;-81
2023/06/09 10:46:00;;;;;;;13.90;8.75;;;;;;;31.33;36.14;100435.91;4959725;28;20053;-81
2023/06/09 10:48:48;;;;;;;9.30;7.93;;;;;;;32.07;34.76;100439.59;4981435;28;20050;-81
2023/06/09 10:51:36;;;;;;;186.90;39.85;;;;;;;31.29;35.98;100429.63;4974996;28;20050;-82
2023/06/09 10:54:22;;;;;;;86.13;22.52;;;;;;;29.74;39.51;100431.44;4961897;28;20051;-83
2023/06/09 10:57:37;;;;;;;96.07;24.92;;;;;;;28.79;40.46;100423.38;4983379;28;20498;-82
2023/06/09 11:00:23;;;;;;;82.13;20.92;;;;;;;27.87;43.14;100421.16;4981460;28;20038;-81
2023/06/09 11:03:11;;;;;;;58.47;17.25;;;;;;;27.00;45.70;100422.94;4983459;28;20057;-80
2023/06/09 11:06:00;;;;;;;67.80;19.05;;;;;;;25.92;48.53;100402.47;4981454;28;20049;-79
2023/06/09 11:09:16;;;;;;;42.58;13.07;;;;;;;25.64;49.96;100414.94;4956260;29;20054;-83
2023/06/09 11:12:01;;;;;;;15.45;8.38;;;;;;;25.84;49.24;100409.41;4970424;28;20043;-81
2023/06/09 11:14:51;;;;;;;23.20;8.57;;;;;;;25.90;49.42;100407.69;4968868;28;20058;-80
2023/06/09 11:17:37;;;;;;;21.38;7.80;;;;;;;25.91;49.25;100404.47;4955937;28;20046;-79
2023/06/09 11:20:24;;;;;;;9.40;6.05;;;;;;;25.97;48.56;100402.75;4969748;28;20058;-81
2023/06/09 11:23:08;;;;;;;13.25;6.38;;;;;;;26.10;48.36;100413.28;4958786;28;20049;-79
2023/06/09 11:25:53;;;;;;;11.27;5.15;;;;;;;26.22;46.96;100416.22;4963536;28;20053;-80
2023/06/09 11:28:41;;;;;;;9.98;4.97;;;;;;;26.08;48.05;100415.69;4986644;28;20453;-80
2023/06/09 11:31:27;;;;;;;7.85;4.47;;;;;;;25.95;48.13;100405.22;4993858;28;20046;-80
2023/06/09 11:34:55;;;;;;;11.13;7.57;;;;;;;26.00;48.41;100409.50;5004588;28;20041;-81
2023/06/09 11:38:08;;;;;;;9.30;5.63;;;;;;;25.62;49.46;100399.84;4987141;28;20045;-80
2023/06/09 11:40:55;;;;;;;7.35;5.05;;;;;;;25.51;49.82;100400.78;4977379;28;20050;-80
2023/06/09 11:43:54;;;;;;;10.10;6.38;;;;;;;25.45;51.14;100399.69;4973992;28;20057;-79
2023/06/09 11:46:39;;;;;;;8.43;6.68;;;;;;;25.69;50.50;100405.31;4982155;28;20045;-79
2023/06/09 11:49:24;;;;;;;8.13;5.60;;;;;;;25.17;51.39;100391.84;4981066;28;20049;-80
2023/06/09 11:52:09;;;;;;;6.28;4.55;;;;;;;25.17;51.17;100394.63;4993309;28;20053;-80
2023/06/09 11:54:54;;;;;;;9.40;5.63;;;;;;;24.99;51.99;100402.47;4999850;28;20054;-80
2023/06/09 11:57:39;;;;;;;12.23;5.65;;;;;;;24.58;53.09;100395.06;4999899;28;20515;-80
2023/06/09 12:00:26;;;;;;;6.97;4.10;;;;;;;24.59;53.27;100396.63;4999670;28;20073;-81
2023/06/09 12:03:12;;;;;;;7.78;6.30;;;;;;;24.75;53.78;100393.25;4993952;28;20049;-80
2023/06/09 12:05:57;;;;;;;13.63;6.25;;;;;;;24.83;53.22;100385.59;4985810;28;20053;-81
2023/06/09 12:08:41;;;;;;;;;;;;;;;24.60;53.24;100381.53;4981191;28;20049;-80
2023/06/09 12:11:28;;;;;;;9.00;5.53;;;;;;;24.86;52.70;100370.84;4987893;28;19914;-80
2023/06/09 12:14:12;;;;;;;8.77;5.72;;;;;;;25.19;51.31;100375.50;4974320;28;20422;-80
2023/06/09 12:16:57;;;;;;;6.50;5.20;;;;;;;25.48;50.45;100376.59;4979334;28;20050;-80
2023/06/09 12:19:41;;;;;;;6.32;4.43;;;;;;;25.33;50.81;100372.47;4960345;28;20050;-80
2023/06/09 12:22:36;;;;;;;;;;;;;;;25.68;48.92;100364.72;4973958;28;20114;-80
2023/06/09 12:25:32;;;;;;;6.15;4.38;;;;;;;25.41;49.89;100365.56;4973289;28;19914;-79
2023/06/09 12:28:26;;;;;;;6.50;4.10;;;;;;;24.80;52.12;100353.03;4993229;28;20040;-79
2023/06/09 12:31:11;;;;;;;28.38;7.70;;;;;;;24.94;51.85;100356.41;4978802;28;20049;-79
2023/06/09 12:33:57;;;;;;;9.98;6.22;;;;;;;24.97;51.98;100344.47;4978808;28;20061;-79
2023/06/09 12:36:42;;;;;;;11.70;8.52;;;;;;;24.81;52.94;100344.28;4978114;28;20058;-80
2023/06/09 12:39:34;;;;;;;18.08;10.77;;;;;;;25.44;51.34;100341.69;4991262;28;20050;-80
2023/06/09 12:42:19;;;;;;;13.48;7.40;;;;;;;25.86;50.57;100331.72;4976925;28;20124;-79
2023/06/09 12:45:03;;;;;;;12.30;8.73;;;;;;;25.75;50.40;100331.19;4979396;28;20053;-80
2023/06/09 12:47:49;;;;;;;9.75;7.18;;;;;;;25.56;51.23;100321.56;4983690;28;20057;-79
2023/06/09 12:50:34;;;;;;;14.23;9.55;;;;;;;25.31;52.63;100322.00;4987667;28;20045;-79
2023/06/09 12:53:19;;;;;;;8.32;6.55;;;;;;;24.95;53.08;100319.03;4980036;28;20069;-79